sensor_id;sensor_type;location;lat;lon;timestamp;P1;durP1;ratioP1;P2;durP2;ratioP2
28353;SDS011;15603;50.878;8.036;2023-04-30T00:01:00;27.08;;;15.77;;
28353;SDS011;15603;50.878;8.036;2023-04-30T00:03:27;26.33;;;15.50;;
28353;SDS011;15603;50.878;8.036;2023-04-30T00:05:55;32.92;;;17.40;;
28353;SDS011;15603;50.878;8.036;2023-04-30T00:08:22;27.58;;;15.75;;
28353;SDS011;15603;50.878;8.036;2023-04-30T00:10:49;31.67;;;16.02;;
28353;SDS011;15603;50.878;8.036;2023-04-30T00:13:17;30.08;;;16.60;;
28353;SDS011;15603;50.878;8.036;2023-04-30T00:15:44;28.60;;;15.77;;
28353;SDS011;15603;50.878;8.036;2023-04-30T00:18:11;27.05;;;13.90;;
28353;SDS011;15603;50.878;8.036;2023-04-30T00:20:39;29.25;;;17.00;;
28353;SDS011;15603;50.878;8.036;2023-04-30T00:23:06;27.70;;;13.55;;
28353;SDS011;15603;50.878;8.036;2023-04-30T00:25:33;27.55;;;14.90;;
28353;SDS011;15603;50.878;8.036;2023-04-30T00:28:01;29.23;;;15.88;;
28353;SDS011;15603;50.878;8.036;2023-04-30T00:30:28;24.20;;;14.30;;
28353;SDS011;15603;50.878;8.036;2023-04-30T00:32:55;26.75;;;14.73;;
28353;SDS011;15603;50.878;8.036;2023-04-30T00:35:22;24.15;;;14.52;;
28353;SDS011;15603;50.878;8.036;2023-04-30T00:37:49;25.38;;;14.57;;
28353;SDS011;15603;50.878;8.036;2023-04-30T00:40:16;27.63;;;14.88;;
28353;SDS011;15603;50.878;8.036;2023-04-30T00:42:43;23.75;;;14.52;;
28353;SDS011;15603;50.878;8.036;2023-04-30T00:45:10;25.35;;;15.43;;
28353;SDS011;15603;50.878;8.036;2023-04-30T00:47:38;29.75;;;14.55;;
28353;SDS011;15603;50.878;8.036;2023-04-30T00:50:06;31.10;;;15.75;;
28353;SDS011;15603;50.878;8.036;2023-04-30T00:52:33;32.67;;;16.75;;
28353;SDS011;15603;50.878;8.036;2023-04-30T00:55:00;26.98;;;15.25;;
28353;SDS011;15603;50.878;8.036;2023-04-30T00:57:28;32.72;;;16.00;;
28353;SDS011;15603;50.878;8.036;2023-04-30T00:59:55;32.55;;;15.77;;
28353;SDS011;15603;50.878;8.036;2023-04-30T01:02:22;24.45;;;14.93;;
28353;SDS011;15603;50.878;8.036;2023-04-30T01:04:50;26.65;;;14.13;;
28353;SDS011;15603;50.878;8.036;2023-04-30T01:07:17;29.00;;;15.40;;
28353;SDS011;15603;50.878;8.036;2023-04-30T01:09:44;29.10;;;13.90;;
28353;SDS011;15603;50.878;8.036;2023-04-30T01:12:16;23.15;;;14.40;;
28353;SDS011;15603;50.878;8.036;2023-04-30T01:20:28;26.13;;;14.75;;
28353;SDS011;15603;50.878;8.036;2023-04-30T01:23:03;32.90;;;15.48;;
28353;SDS011;15603;50.878;8.036;2023-04-30T01:25:46;24.50;;;15.07;;
28353;SDS011;15603;50.878;8.036;2023-04-30T01:28:24;28.02;;;16.20;;
28353;SDS011;15603;50.878;8.036;2023-04-30T01:30:51;24.92;;;14.50;;
28353;SDS011;15603;50.878;8.036;2023-04-30T01:33:19;28.77;;;15.65;;
28353;SDS011;15603;50.878;8.036;2023-04-30T01:38:45;29.00;;;14.65;;
28353;SDS011;15603;50.878;8.036;2023-04-30T01:41:39;26.05;;;14.85;;
28353;SDS011;15603;50.878;8.036;2023-04-30T01:52:40;33.72;;;16.40;;
28353;SDS011;15603;50.878;8.036;2023-04-30T01:58:10;34.15;;;17.88;;
28353;SDS011;15603;50.878;8.036;2023-04-30T02:00:38;39.33;;;16.52;;
28353;SDS011;15603;50.878;8.036;2023-04-30T02:03:06;38.97;;;17.52;;
28353;SDS011;15603;50.878;8.036;2023-04-30T02:05:34;37.13;;;18.13;;
28353;SDS011;15603;50.878;8.036;2023-04-30T02:08:01;37.22;;;17.55;;
28353;SDS011;15603;50.878;8.036;2023-04-30T02:10:29;38.55;;;18.30;;
28353;SDS011;15603;50.878;8.036;2023-04-30T02:12:56;41.50;;;19.20;;
28353;SDS011;15603;50.878;8.036;2023-04-30T02:15:23;56.55;;;21.85;;
28353;SDS011;15603;50.878;8.036;2023-04-30T02:17:50;44.38;;;19.08;;
28353;SDS011;15603;50.878;8.036;2023-04-30T02:20:17;46.53;;;19.58;;
28353;SDS011;15603;50.878;8.036;2023-04-30T02:22:45;46.83;;;19.77;;
28353;SDS011;15603;50.878;8.036;2023-04-30T02:25:12;37.35;;;20.35;;
28353;SDS011;15603;50.878;8.036;2023-04-30T02:27:39;59.08;;;20.60;;
28353;SDS011;15603;50.878;8.036;2023-04-30T02:30:07;81.10;;;22.27;;
28353;SDS011;15603;50.878;8.036;2023-04-30T02:32:34;95.40;;;21.15;;
28353;SDS011;15603;50.878;8.036;2023-04-30T02:35:01;77.85;;;21.17;;
28353;SDS011;15603;50.878;8.036;2023-04-30T02:37:28;76.07;;;20.88;;
28353;SDS011;15603;50.878;8.036;2023-04-30T02:39:56;99.75;;;20.20;;
28353;SDS011;15603;50.878;8.036;2023-04-30T02:42:24;70.45;;;20.00;;
28353;SDS011;15603;50.878;8.036;2023-04-30T02:44:51;62.78;;;19.25;;
28353;SDS011;15603;50.878;8.036;2023-04-30T02:47:18;89.45;;;20.58;;
28353;SDS011;15603;50.878;8.036;2023-04-30T02:49:46;55.53;;;19.83;;
28353;SDS011;15603;50.878;8.036;2023-04-30T02:52:13;59.95;;;20.85;;
28353;SDS011;15603;50.878;8.036;2023-04-30T02:54:40;61.70;;;20.55;;
28353;SDS011;15603;50.878;8.036;2023-04-30T02:57:07;70.25;;;19.80;;
28353;SDS011;15603;50.878;8.036;2023-04-30T02:59:34;71.35;;;20.77;;
28353;SDS011;15603;50.878;8.036;2023-04-30T03:02:01;65.10;;;19.60;;
28353;SDS011;15603;50.878;8.036;2023-04-30T03:04:29;63.83;;;19.30;;
28353;SDS011;15603;50.878;8.036;2023-04-30T03:06:56;64.85;;;18.88;;
28353;SDS011;15603;50.878;8.036;2023-04-30T03:09:23;95.97;;;18.02;;
28353;SDS011;15603;50.878;8.036;2023-04-30T03:11:50;116.15;;;18.67;;
28353;SDS011;15603;50.878;8.036;2023-04-30T03:14:17;80.32;;;17.10;;
28353;SDS011;15603;50.878;8.036;2023-04-30T03:16:44;81.20;;;16.80;;
28353;SDS011;15603;50.878;8.036;2023-04-30T03:19:11;79.47;;;15.65;;
28353;SDS011;15603;50.878;8.036;2023-04-30T03:21:39;61.22;;;16.02;;
28353;SDS011;15603;50.878;8.036;2023-04-30T03:24:06;46.55;;;16.40;;
28353;SDS011;15603;50.878;8.036;2023-04-30T03:26:34;56.03;;;17.75;;
28353;SDS011;15603;50.878;8.036;2023-04-30T03:29:01;72.50;;;19.05;;
28353;SDS011;15603;50.878;8.036;2023-04-30T03:31:28;62.42;;;19.27;;
28353;SDS011;15603;50.878;8.036;2023-04-30T03:33:55;68.43;;;18.92;;
28353;SDS011;15603;50.878;8.036;2023-04-30T03:36:22;54.40;;;18.15;;
28353;SDS011;15603;50.878;8.036;2023-04-30T03:38:49;40.17;;;19.20;;
28353;SDS011;15603;50.878;8.036;2023-04-30T03:41:16;45.35;;;19.20;;
28353;SDS011;15603;50.878;8.036;2023-04-30T03:43:44;50.08;;;18.00;;
28353;SDS011;15603;50.878;8.036;2023-04-30T03:46:11;49.20;;;17.90;;
28353;SDS011;15603;50.878;8.036;2023-04-30T03:48:39;42.22;;;17.70;;
28353;SDS011;15603;50.878;8.036;2023-04-30T03:51:06;45.38;;;15.80;;
28353;SDS011;15603;50.878;8.036;2023-04-30T03:53:33;47.92;;;17.52;;
28353;SDS011;15603;50.878;8.036;2023-04-30T03:56:00;42.25;;;16.92;;
28353;SDS011;15603;50.878;8.036;2023-04-30T03:58:28;47.83;;;16.45;;
28353;SDS011;15603;50.878;8.036;2023-04-30T04:00:55;79.55;;;16.92;;
28353;SDS011;15603;50.878;8.036;2023-04-30T04:03:23;47.50;;;16.33;;
28353;SDS011;15603;50.878;8.036;2023-04-30T04:05:50;57.00;;;18.15;;
28353;SDS011;15603;50.878;8.036;2023-04-30T04:08:17;46.58;;;17.05;;
28353;SDS011;15603;50.878;8.036;2023-04-30T04:10:44;52.88;;;17.08;;
28353;SDS011;15603;50.878;8.036;2023-04-30T04:13:11;81.95;;;17.98;;
28353;SDS011;15603;50.878;8.036;2023-04-30T04:15:39;130.90;;;17.60;;
28353;SDS011;15603;50.878;8.036;2023-04-30T04:18:06;187.82;;;17.48;;
28353;SDS011;15603;50.878;8.036;2023-04-30T04:20:34;121.57;;;17.10;;
28353;SDS011;15603;50.878;8.036;2023-04-30T04:23:02;123.57;;;16.48;;
28353;SDS011;15603;50.878;8.036;2023-04-30T04:25:29;103.95;;;15.60;;
28353;SDS011;15603;50.878;8.036;2023-04-30T04:27:56;84.20;;;17.50;;
28353;SDS011;15603;50.878;8.036;2023-04-30T04:30:23;103.82;;;16.45;;
28353;SDS011;15603;50.878;8.036;2023-04-30T04:32:50;58.53;;;16.25;;
28353;SDS011;15603;50.878;8.036;2023-04-30T04:35:19;65.82;;;14.82;;
28353;SDS011;15603;50.878;8.036;2023-04-30T04:37:47;118.80;;;17.45;;
28353;SDS011;15603;50.878;8.036;2023-04-30T04:40:14;52.08;;;16.55;;
28353;SDS011;15603;50.878;8.036;2023-04-30T04:42:41;114.70;;;16.10;;
28353;SDS011;15603;50.878;8.036;2023-04-30T04:45:08;81.53;;;15.20;;
28353;SDS011;15603;50.878;8.036;2023-04-30T04:47:35;65.95;;;15.73;;
28353;SDS011;15603;50.878;8.036;2023-04-30T04:50:03;101.10;;;14.63;;
28353;SDS011;15603;50.878;8.036;2023-04-30T04:52:31;80.18;;;14.18;;
28353;SDS011;15603;50.878;8.036;2023-04-30T04:54:58;135.00;;;16.48;;
28353;SDS011;15603;50.878;8.036;2023-04-30T04:57:25;69.03;;;15.23;;
28353;SDS011;15603;50.878;8.036;2023-04-30T04:59:52;57.13;;;14.63;;
28353;SDS011;15603;50.878;8.036;2023-04-30T05:02:20;91.05;;;14.50;;
28353;SDS011;15603;50.878;8.036;2023-04-30T05:04:49;81.38;;;13.75;;
28353;SDS011;15603;50.878;8.036;2023-04-30T05:07:18;63.20;;;15.45;;
28353;SDS011;15603;50.878;8.036;2023-04-30T05:09:45;61.47;;;15.25;;
28353;SDS011;15603;50.878;8.036;2023-04-30T05:12:13;53.50;;;14.38;;
28353;SDS011;15603;50.878;8.036;2023-04-30T05:14:40;61.90;;;14.10;;
28353;SDS011;15603;50.878;8.036;2023-04-30T05:17:08;46.08;;;15.32;;
28353;SDS011;15603;50.878;8.036;2023-04-30T05:19:35;52.53;;;13.30;;
28353;SDS011;15603;50.878;8.036;2023-04-30T05:22:03;44.60;;;13.27;;
28353;SDS011;15603;50.878;8.036;2023-04-30T05:24:30;54.83;;;13.43;;
28353;SDS011;15603;50.878;8.036;2023-04-30T05:26:57;56.33;;;13.60;;
28353;SDS011;15603;50.878;8.036;2023-04-30T05:29:24;36.88;;;12.15;;
28353;SDS011;15603;50.878;8.036;2023-04-30T05:31:51;84.32;;;12.65;;
28353;SDS011;15603;50.878;8.036;2023-04-30T05:34:19;74.45;;;13.30;;
28353;SDS011;15603;50.878;8.036;2023-04-30T05:36:46;60.25;;;11.55;;
28353;SDS011;15603;50.878;8.036;2023-04-30T05:39:13;45.50;;;13.70;;
28353;SDS011;15603;50.878;8.036;2023-04-30T05:41:40;32.38;;;12.25;;
28353;SDS011;15603;50.878;8.036;2023-04-30T05:44:07;50.05;;;12.30;;
28353;SDS011;15603;50.878;8.036;2023-04-30T05:46:34;28.95;;;12.00;;
28353;SDS011;15603;50.878;8.036;2023-04-30T05:49:01;47.42;;;12.77;;
28353;SDS011;15603;50.878;8.036;2023-04-30T05:51:28;66.72;;;13.00;;
28353;SDS011;15603;50.878;8.036;2023-04-30T05:53:55;25.35;;;13.75;;
28353;SDS011;15603;50.878;8.036;2023-04-30T05:56:23;30.05;;;12.77;;
28353;SDS011;15603;50.878;8.036;2023-04-30T05:58:50;38.42;;;12.93;;
28353;SDS011;15603;50.878;8.036;2023-04-30T06:01:19;30.42;;;11.93;;
28353;SDS011;15603;50.878;8.036;2023-04-30T06:03:46;25.20;;;12.50;;
28353;SDS011;15603;50.878;8.036;2023-04-30T06:06:13;23.20;;;12.13;;
28353;SDS011;15603;50.878;8.036;2023-04-30T06:08:41;31.83;;;13.38;;
28353;SDS011;15603;50.878;8.036;2023-04-30T06:11:11;25.02;;;12.05;;
28353;SDS011;15603;50.878;8.036;2023-04-30T06:13:38;41.65;;;15.00;;
28353;SDS011;15603;50.878;8.036;2023-04-30T06:16:06;61.60;;;14.10;;
28353;SDS011;15603;50.878;8.036;2023-04-30T06:18:34;36.35;;;15.13;;
28353;SDS011;15603;50.878;8.036;2023-04-30T06:21:01;34.40;;;15.20;;
28353;SDS011;15603;50.878;8.036;2023-04-30T06:23:28;31.77;;;16.00;;
28353;SDS011;15603;50.878;8.036;2023-04-30T06:25:55;28.33;;;14.82;;
28353;SDS011;15603;50.878;8.036;2023-04-30T06:28:22;30.00;;;15.48;;
28353;SDS011;15603;50.878;8.036;2023-04-30T06:30:50;34.72;;;16.92;;
28353;SDS011;15603;50.878;8.036;2023-04-30T06:33:17;34.03;;;18.10;;
28353;SDS011;15603;50.878;8.036;2023-04-30T06:35:44;34.70;;;18.08;;
28353;SDS011;15603;50.878;8.036;2023-04-30T06:38:12;37.13;;;17.52;;
28353;SDS011;15603;50.878;8.036;2023-04-30T06:40:39;37.95;;;17.58;;
28353;SDS011;15603;50.878;8.036;2023-04-30T06:43:07;34.55;;;16.45;;
28353;SDS011;15603;50.878;8.036;2023-04-30T06:45:34;33.25;;;17.45;;
28353;SDS011;15603;50.878;8.036;2023-04-30T06:48:01;50.70;;;21.52;;
28353;SDS011;15603;50.878;8.036;2023-04-30T06:50:28;45.67;;;21.80;;
28353;SDS011;15603;50.878;8.036;2023-04-30T06:52:55;61.10;;;24.60;;
28353;SDS011;15603;50.878;8.036;2023-04-30T06:55:23;60.15;;;23.90;;
28353;SDS011;15603;50.878;8.036;2023-04-30T06:57:50;69.35;;;28.50;;
28353;SDS011;15603;50.878;8.036;2023-04-30T07:00:17;75.55;;;28.92;;
28353;SDS011;15603;50.878;8.036;2023-04-30T07:02:44;82.93;;;27.80;;
28353;SDS011;15603;50.878;8.036;2023-04-30T07:05:13;63.85;;;25.92;;
28353;SDS011;15603;50.878;8.036;2023-04-30T07:07:41;70.68;;;26.63;;
28353;SDS011;15603;50.878;8.036;2023-04-30T07:10:09;66.85;;;23.75;;
28353;SDS011;15603;50.878;8.036;2023-04-30T07:12:36;56.60;;;21.83;;
28353;SDS011;15603;50.878;8.036;2023-04-30T07:15:03;45.63;;;18.08;;
28353;SDS011;15603;50.878;8.036;2023-04-30T07:17:30;47.67;;;20.48;;
28353;SDS011;15603;50.878;8.036;2023-04-30T07:19:57;79.22;;;22.23;;
28353;SDS011;15603;50.878;8.036;2023-04-30T07:22:24;50.55;;;19.40;;
28353;SDS011;15603;50.878;8.036;2023-04-30T07:24:51;48.15;;;18.13;;
28353;SDS011;15603;50.878;8.036;2023-04-30T07:27:18;41.25;;;18.02;;
28353;SDS011;15603;50.878;8.036;2023-04-30T07:29:46;35.08;;;16.88;;
28353;SDS011;15603;50.878;8.036;2023-04-30T07:32:13;44.17;;;15.30;;
28353;SDS011;15603;50.878;8.036;2023-04-30T07:34:41;35.53;;;15.25;;
28353;SDS011;15603;50.878;8.036;2023-04-30T07:37:08;32.33;;;13.18;;
28353;SDS011;15603;50.878;8.036;2023-04-30T07:39:35;28.45;;;11.70;;
28353;SDS011;15603;50.878;8.036;2023-04-30T07:42:03;23.77;;;10.50;;
28353;SDS011;15603;50.878;8.036;2023-04-30T07:44:30;24.65;;;10.52;;
28353;SDS011;15603;50.878;8.036;2023-04-30T07:46:57;24.02;;;10.40;;
28353;SDS011;15603;50.878;8.036;2023-04-30T07:49:24;20.38;;;9.90;;
28353;SDS011;15603;50.878;8.036;2023-04-30T07:51:51;25.92;;;9.35;;
28353;SDS011;15603;50.878;8.036;2023-04-30T07:54:19;25.50;;;8.73;;
28353;SDS011;15603;50.878;8.036;2023-04-30T07:56:46;15.70;;;8.68;;
28353;SDS011;15603;50.878;8.036;2023-04-30T07:59:14;16.65;;;6.88;;
28353;SDS011;15603;50.878;8.036;2023-04-30T08:01:41;17.27;;;8.07;;
28353;SDS011;15603;50.878;8.036;2023-04-30T08:04:09;14.98;;;6.25;;
28353;SDS011;15603;50.878;8.036;2023-04-30T08:06:36;12.43;;;6.25;;
28353;SDS011;15603;50.878;8.036;2023-04-30T08:09:03;12.10;;;6.00;;
28353;SDS011;15603;50.878;8.036;2023-04-30T08:11:30;12.38;;;6.43;;
28353;SDS011;15603;50.878;8.036;2023-04-30T08:13:57;14.32;;;6.00;;
28353;SDS011;15603;50.878;8.036;2023-04-30T08:16:24;16.05;;;6.70;;
28353;SDS011;15603;50.878;8.036;2023-04-30T08:18:52;11.68;;;6.65;;
28353;SDS011;15603;50.878;8.036;2023-04-30T08:21:20;14.38;;;6.28;;
28353;SDS011;15603;50.878;8.036;2023-04-30T08:23:47;10.80;;;5.10;;
28353;SDS011;15603;50.878;8.036;2023-04-30T08:26:14;11.52;;;5.10;;
28353;SDS011;15603;50.878;8.036;2023-04-30T08:28:41;5.13;;;3.17;;
28353;SDS011;15603;50.878;8.036;2023-04-30T08:31:08;8.07;;;3.78;;
28353;SDS011;15603;50.878;8.036;2023-04-30T08:33:35;7.03;;;2.40;;
28353;SDS011;15603;50.878;8.036;2023-04-30T08:36:02;7.90;;;3.00;;
28353;SDS011;15603;50.878;8.036;2023-04-30T08:38:30;4.78;;;2.22;;
28353;SDS011;15603;50.878;8.036;2023-04-30T08:41:04;8.55;;;4.10;;
28353;SDS011;15603;50.878;8.036;2023-04-30T08:43:37;9.88;;;3.80;;
28353;SDS011;15603;50.878;8.036;2023-04-30T08:46:05;4.60;;;1.90;;
28353;SDS011;15603;50.878;8.036;2023-04-30T08:48:33;6.30;;;2.83;;
28353;SDS011;15603;50.878;8.036;2023-04-30T08:51:00;4.72;;;1.38;;
28353;SDS011;15603;50.878;8.036;2023-04-30T08:53:29;1.70;;;0.68;;
28353;SDS011;15603;50.878;8.036;2023-04-30T08:55:57;2.05;;;0.90;;
28353;SDS011;15603;50.878;8.036;2023-04-30T08:58:24;0.70;;;0.50;;
28353;SDS011;15603;50.878;8.036;2023-04-30T09:00:51;1.48;;;0.65;;
28353;SDS011;15603;50.878;8.036;2023-04-30T09:03:18;3.42;;;1.65;;
28353;SDS011;15603;50.878;8.036;2023-04-30T09:05:47;1.90;;;0.40;;
28353;SDS011;15603;50.878;8.036;2023-04-30T09:08:39;1.27;;;0.75;;
28353;SDS011;15603;50.878;8.036;2023-04-30T09:11:19;1.48;;;0.65;;
28353;SDS011;15603;50.878;8.036;2023-04-30T09:13:57;2.05;;;0.65;;
28353;SDS011;15603;50.878;8.036;2023-04-30T09:16:26;2.13;;;0.95;;
28353;SDS011;15603;50.878;8.036;2023-04-30T09:18:57;0.40;;;0.40;;
28353;SDS011;15603;50.878;8.036;2023-04-30T09:21:32;2.13;;;0.40;;
28353;SDS011;15603;50.878;8.036;2023-04-30T09:24:01;1.27;;;0.20;;
28353;SDS011;15603;50.878;8.036;2023-04-30T09:26:33;1.38;;;0.60;;
28353;SDS011;15603;50.878;8.036;2023-04-30T09:31:34;0.40;;;0.38;;
28353;SDS011;15603;50.878;8.036;2023-04-30T09:34:02;0.77;;;0.20;;
28353;SDS011;15603;50.878;8.036;2023-04-30T09:36:30;0.35;;;0.30;;
28353;SDS011;15603;50.878;8.036;2023-04-30T09:39:04;0.38;;;0.30;;
28353;SDS011;15603;50.878;8.036;2023-04-30T09:41:36;0.63;;;0.20;;
28353;SDS011;15603;50.878;8.036;2023-04-30T09:44:03;0.10;;;0.10;;
28353;SDS011;15603;50.878;8.036;2023-04-30T09:46:31;0.75;;;0.57;;
28353;SDS011;15603;50.878;8.036;2023-04-30T09:49:01;0.20;;;0.10;;
28353;SDS011;15603;50.878;8.036;2023-04-30T09:51:29;0.10;;;0.10;;
28353;SDS011;15603;50.878;8.036;2023-04-30T09:53:57;1.17;;;0.35;;
28353;SDS011;15603;50.878;8.036;2023-04-30T09:56:28;0.10;;;0.10;;
28353;SDS011;15603;50.878;8.036;2023-04-30T10:01:30;0.52;;;0.10;;
28353;SDS011;15603;50.878;8.036;2023-04-30T10:03:59;0.95;;;0.30;;
28353;SDS011;15603;50.878;8.036;2023-04-30T10:06:27;0.65;;;0.22;;
28353;SDS011;15603;50.878;8.036;2023-04-30T10:08:55;0.63;;;0.20;;
28353;SDS011;15603;50.878;8.036;2023-04-30T10:11:25;0.75;;;0.10;;
28353;SDS011;15603;50.878;8.036;2023-04-30T10:13:59;0.68;;;0.20;;
28353;SDS011;15603;50.878;8.036;2023-04-30T10:19:33;1.13;;;0.30;;
28353;SDS011;15603;50.878;8.036;2023-04-30T10:22:04;2.90;;;0.10;;
28353;SDS011;15603;50.878;8.036;2023-04-30T10:24:32;0.60;;;0.20;;
28353;SDS011;15603;50.878;8.036;2023-04-30T10:27:00;0.52;;;0.20;;
28353;SDS011;15603;50.878;8.036;2023-04-30T10:29:27;0.30;;;0.10;;
28353;SDS011;15603;50.878;8.036;2023-04-30T10:31:54;0.30;;;0.20;;
28353;SDS011;15603;50.878;8.036;2023-04-30T10:40:11;0.25;;;0.20;;
28353;SDS011;15603;50.878;8.036;2023-04-30T10:42:38;0.45;;;0.10;;
28353;SDS011;15603;50.878;8.036;2023-04-30T10:45:11;2.60;;;0.10;;
28353;SDS011;15603;50.878;8.036;2023-04-30T10:47:41;0.32;;;0.30;;
28353;SDS011;15603;50.878;8.036;2023-04-30T10:50:09;0.28;;;0.20;;
28353;SDS011;15603;50.878;8.036;2023-04-30T10:52:36;1.10;;;0.35;;
28353;SDS011;15603;50.878;8.036;2023-04-30T10:55:07;0.10;;;0.10;;
28353;SDS011;15603;50.878;8.036;2023-04-30T10:57:41;0.20;;;0.20;;
28353;SDS011;15603;50.878;8.036;2023-04-30T11:02:43;0.63;;;0.10;;
28353;SDS011;15603;50.878;8.036;2023-04-30T11:07:50;0.20;;;0.20;;
28353;SDS011;15603;50.878;8.036;2023-04-30T11:10:23;0.15;;;0.10;;
28353;SDS011;15603;50.878;8.036;2023-04-30T11:12:53;0.73;;;0.20;;
28353;SDS011;15603;50.878;8.036;2023-04-30T11:15:25;0.82;;;0.40;;
28353;SDS011;15603;50.878;8.036;2023-04-30T11:17:56;0.25;;;0.20;;
28353;SDS011;15603;50.878;8.036;2023-04-30T11:20:25;0.85;;;0.30;;
28353;SDS011;15603;50.878;8.036;2023-04-30T11:23:11;1.02;;;0.20;;
28353;SDS011;15603;50.878;8.036;2023-04-30T11:25:54;0.40;;;0.20;;
28353;SDS011;15603;50.878;8.036;2023-04-30T11:28:25;0.52;;;0.10;;
28353;SDS011;15603;50.878;8.036;2023-04-30T11:30:57;0.47;;;0.25;;
28353;SDS011;15603;50.878;8.036;2023-04-30T11:33:26;0.22;;;0.10;;
28353;SDS011;15603;50.878;8.036;2023-04-30T11:35:55;0.73;;;0.10;;
28353;SDS011;15603;50.878;8.036;2023-04-30T11:38:33;1.65;;;0.40;;
28353;SDS011;15603;50.878;8.036;2023-04-30T11:41:02;0.47;;;0.20;;
28353;SDS011;15603;50.878;8.036;2023-04-30T11:43:31;0.90;;;0.20;;
28353;SDS011;15603;50.878;8.036;2023-04-30T11:46:04;2.35;;;0.32;;
28353;SDS011;15603;50.878;8.036;2023-04-30T11:48:34;0.20;;;0.10;;
28353;SDS011;15603;50.878;8.036;2023-04-30T11:51:25;0.15;;;0.10;;
28353;SDS011;15603;50.878;8.036;2023-04-30T11:53:51;0.20;;;0.20;;
28353;SDS011;15603;50.878;8.036;2023-04-30T11:56:22;0.68;;;0.30;;
28353;SDS011;15603;50.878;8.036;2023-04-30T11:58:51;0.17;;;0.10;;
28353;SDS011;15603;50.878;8.036;2023-04-30T12:01:19;0.10;;;0.10;;
28353;SDS011;15603;50.878;8.036;2023-04-30T12:03:48;0.40;;;0.10;;
28353;SDS011;15603;50.878;8.036;2023-04-30T12:06:20;0.32;;;0.10;;
28353;SDS011;15603;50.878;8.036;2023-04-30T12:08:52;0.85;;;0.38;;
28353;SDS011;15603;50.878;8.036;2023-04-30T12:11:21;0.70;;;0.30;;
28353;SDS011;15603;50.878;8.036;2023-04-30T12:14:02;1.15;;;0.40;;
28353;SDS011;15603;50.878;8.036;2023-04-30T12:16:52;0.30;;;0.20;;
28353;SDS011;15603;50.878;8.036;2023-04-30T12:19:20;2.95;;;0.30;;
28353;SDS011;15603;50.878;8.036;2023-04-30T12:21:50;1.80;;;0.20;;
28353;SDS011;15603;50.878;8.036;2023-04-30T12:24:20;0.47;;;0.13;;
28353;SDS011;15603;50.878;8.036;2023-04-30T12:26:51;5.15;;;0.40;;
28353;SDS011;15603;50.878;8.036;2023-04-30T12:29:20;0.52;;;0.10;;
28353;SDS011;15603;50.878;8.036;2023-04-30T12:31:48;0.43;;;0.28;;
28353;SDS011;15603;50.878;8.036;2023-04-30T12:34:18;0.60;;;0.20;;
28353;SDS011;15603;50.878;8.036;2023-04-30T12:36:45;1.13;;;0.25;;
28353;SDS011;15603;50.878;8.036;2023-04-30T12:39:12;0.45;;;0.25;;
28353;SDS011;15603;50.878;8.036;2023-04-30T12:41:47;0.25;;;0.20;;
28353;SDS011;15603;50.878;8.036;2023-04-30T12:46:47;1.75;;;0.50;;
28353;SDS011;15603;50.878;8.036;2023-04-30T12:49:27;0.40;;;0.38;;
28353;SDS011;15603;50.878;8.036;2023-04-30T12:51:59;2.97;;;0.22;;
28353;SDS011;15603;50.878;8.036;2023-04-30T12:54:27;3.78;;;1.30;;
28353;SDS011;15603;50.878;8.036;2023-04-30T12:57:03;0.63;;;0.10;;
28353;SDS011;15603;50.878;8.036;2023-04-30T12:59:35;1.05;;;0.30;;
28353;SDS011;15603;50.878;8.036;2023-04-30T13:02:17;7.10;;;1.52;;
28353;SDS011;15603;50.878;8.036;2023-04-30T13:04:45;3.45;;;0.35;;
28353;SDS011;15603;50.878;8.036;2023-04-30T13:07:12;2.13;;;0.40;;
28353;SDS011;15603;50.878;8.036;2023-04-30T13:09:39;0.85;;;0.70;;
28353;SDS011;15603;50.878;8.036;2023-04-30T13:12:06;5.95;;;0.30;;
28353;SDS011;15603;50.878;8.036;2023-04-30T13:14:33;4.03;;;0.30;;
28353;SDS011;15603;50.878;8.036;2023-04-30T13:17:01;2.83;;;0.28;;
28353;SDS011;15603;50.878;8.036;2023-04-30T13:19:31;4.85;;;0.45;;
28353;SDS011;15603;50.878;8.036;2023-04-30T13:21:59;0.50;;;0.20;;
28353;SDS011;15603;50.878;8.036;2023-04-30T13:24:27;0.20;;;0.20;;
28353;SDS011;15603;50.878;8.036;2023-04-30T13:26:54;5.95;;;0.43;;
28353;SDS011;15603;50.878;8.036;2023-04-30T13:29:24;1.33;;;0.40;;
28353;SDS011;15603;50.878;8.036;2023-04-30T13:31:51;1.88;;;0.40;;
28353;SDS011;15603;50.878;8.036;2023-04-30T13:34:18;0.70;;;0.32;;
28353;SDS011;15603;50.878;8.036;2023-04-30T13:36:45;1.38;;;0.30;;
28353;SDS011;15603;50.878;8.036;2023-04-30T13:39:12;4.32;;;0.20;;
28353;SDS011;15603;50.878;8.036;2023-04-30T13:41:39;1.55;;;0.35;;
28353;SDS011;15603;50.878;8.036;2023-04-30T13:44:07;1.92;;;0.20;;
28353;SDS011;15603;50.878;8.036;2023-04-30T13:46:35;0.50;;;0.15;;
28353;SDS011;15603;50.878;8.036;2023-04-30T13:49:02;2.28;;;0.40;;
28353;SDS011;15603;50.878;8.036;2023-04-30T13:51:29;0.30;;;0.10;;
28353;SDS011;15603;50.878;8.036;2023-04-30T13:53:56;2.85;;;0.30;;
28353;SDS011;15603;50.878;8.036;2023-04-30T13:56:23;3.40;;;1.05;;
28353;SDS011;15603;50.878;8.036;2023-04-30T13:58:51;3.35;;;0.40;;
28353;SDS011;15603;50.878;8.036;2023-04-30T14:01:18;0.20;;;0.20;;
28353;SDS011;15603;50.878;8.036;2023-04-30T14:03:45;0.82;;;0.13;;
28353;SDS011;15603;50.878;8.036;2023-04-30T14:06:13;0.75;;;0.28;;
28353;SDS011;15603;50.878;8.036;2023-04-30T14:08:40;0.80;;;0.38;;
28353;SDS011;15603;50.878;8.036;2023-04-30T14:11:07;0.73;;;0.30;;
28353;SDS011;15603;50.878;8.036;2023-04-30T14:13:34;0.30;;;0.30;;
28353;SDS011;15603;50.878;8.036;2023-04-30T14:16:01;1.20;;;0.30;;
28353;SDS011;15603;50.878;8.036;2023-04-30T14:18:28;1.50;;;0.30;;
28353;SDS011;15603;50.878;8.036;2023-04-30T14:20:55;1.55;;;0.40;;
28353;SDS011;15603;50.878;8.036;2023-04-30T14:23:22;0.35;;;0.30;;
28353;SDS011;15603;50.878;8.036;2023-04-30T14:25:49;0.60;;;0.20;;
28353;SDS011;15603;50.878;8.036;2023-04-30T14:28:16;3.10;;;0.30;;
28353;SDS011;15603;50.878;8.036;2023-04-30T14:30:43;1.05;;;0.38;;
28353;SDS011;15603;50.878;8.036;2023-04-30T14:33:11;0.60;;;0.35;;
28353;SDS011;15603;50.878;8.036;2023-04-30T14:35:38;0.47;;;0.22;;
28353;SDS011;15603;50.878;8.036;2023-04-30T14:38:07;1.30;;;0.20;;
28353;SDS011;15603;50.878;8.036;2023-04-30T14:40:34;0.43;;;0.20;;
28353;SDS011;15603;50.878;8.036;2023-04-30T14:43:01;3.17;;;0.30;;
28353;SDS011;15603;50.878;8.036;2023-04-30T14:45:28;0.52;;;0.40;;
28353;SDS011;15603;50.878;8.036;2023-04-30T14:47:55;0.30;;;0.20;;
28353;SDS011;15603;50.878;8.036;2023-04-30T14:50:22;0.88;;;0.20;;
28353;SDS011;15603;50.878;8.036;2023-04-30T14:52:50;2.88;;;0.20;;
28353;SDS011;15603;50.878;8.036;2023-04-30T14:55:17;0.38;;;0.10;;
28353;SDS011;15603;50.878;8.036;2023-04-30T14:57:44;0.47;;;0.15;;
28353;SDS011;15603;50.878;8.036;2023-04-30T15:00:11;0.70;;;0.20;;
28353;SDS011;15603;50.878;8.036;2023-04-30T15:02:39;1.75;;;0.30;;
28353;SDS011;15603;50.878;8.036;2023-04-30T15:05:06;0.38;;;0.25;;
28353;SDS011;15603;50.878;8.036;2023-04-30T15:07:34;1.20;;;0.57;;
28353;SDS011;15603;50.878;8.036;2023-04-30T15:10:02;0.45;;;0.20;;
28353;SDS011;15603;50.878;8.036;2023-04-30T15:12:30;1.08;;;0.25;;
28353;SDS011;15603;50.878;8.036;2023-04-30T15:14:57;0.30;;;0.30;;
28353;SDS011;15603;50.878;8.036;2023-04-30T15:17:24;2.47;;;0.77;;
28353;SDS011;15603;50.878;8.036;2023-04-30T15:19:51;0.65;;;0.40;;
28353;SDS011;15603;50.878;8.036;2023-04-30T15:22:20;0.85;;;0.40;;